sensor_id;sensor_type;location;lat;lon;timestamp;P1;durP1;ratioP1;P2;durP2;ratioP2
12910;SDS011;6523;49.758;6.120;2023-04-23T00:00:03;9.67;;;7.90;;
12910;SDS011;6523;49.758;6.120;2023-04-23T00:02:31;9.03;;;8.20;;
12910;SDS011;6523;49.758;6.120;2023-04-23T00:04:57;9.00;;;7.80;;
12910;SDS011;6523;49.758;6.120;2023-04-23T00:07:28;9.67;;;8.67;;
12910;SDS011;6523;49.758;6.120;2023-04-23T00:09:56;9.27;;;8.27;;
12910;SDS011;6523;49.758;6.120;2023-04-23T00:12:22;8.90;;;8.00;;
12910;SDS011;6523;49.758;6.120;2023-04-23T00:14:48;11.70;;;7.97;;
12910;SDS011;6523;49.758;6.120;2023-04-23T00:17:14;9.47;;;8.57;;
12910;SDS011;6523;49.758;6.120;2023-04-23T00:19:39;8.80;;;7.90;;
12910;SDS011;6523;49.758;6.120;2023-04-23T00:22:05;9.10;;;8.20;;
12910;SDS011;6523;49.758;6.120;2023-04-23T00:24:30;9.90;;;8.90;;
12910;SDS011;6523;49.758;6.120;2023-04-23T00:26:58;12.50;;;9.63;;
12910;SDS011;6523;49.758;6.120;2023-04-23T00:29:23;11.10;;;8.37;;
12910;SDS011;6523;49.758;6.120;2023-04-23T00:31:49;10.87;;;9.63;;
12910;SDS011;6523;49.758;6.120;2023-04-23T00:34:15;11.23;;;9.27;;
12910;SDS011;6523;49.758;6.120;2023-04-23T00:36:40;10.53;;;9.53;;
12910;SDS011;6523;49.758;6.120;2023-04-23T00:39:06;10.97;;;8.67;;
12910;SDS011;6523;49.758;6.120;2023-04-23T00:41:31;10.70;;;9.60;;
12910;SDS011;6523;49.758;6.120;2023-04-23T00:43:58;9.80;;;8.80;;
12910;SDS011;6523;49.758;6.120;2023-04-23T00:46:24;9.80;;;8.70;;
12910;SDS011;6523;49.758;6.120;2023-04-23T00:48:51;10.10;;;9.10;;
12910;SDS011;6523;49.758;6.120;2023-04-23T00:51:17;10.37;;;8.93;;
12910;SDS011;6523;49.758;6.120;2023-04-23T00:53:43;10.17;;;8.50;;
12910;SDS011;6523;49.758;6.120;2023-04-23T00:56:08;10.17;;;8.57;;
12910;SDS011;6523;49.758;6.120;2023-04-23T00:58:34;10.00;;;8.77;;
12910;SDS011;6523;49.758;6.120;2023-04-23T01:01:00;10.07;;;9.07;;
12910;SDS011;6523;49.758;6.120;2023-04-23T01:03:28;10.07;;;9.07;;
12910;SDS011;6523;49.758;6.120;2023-04-23T01:05:56;11.53;;;9.00;;
12910;SDS011;6523;49.758;6.120;2023-04-23T01:08:22;9.43;;;8.53;;
12910;SDS011;6523;49.758;6.120;2023-04-23T01:10:49;10.90;;;8.80;;
12910;SDS011;6523;49.758;6.120;2023-04-23T01:13:16;10.00;;;9.10;;
12910;SDS011;6523;49.758;6.120;2023-04-23T01:15:42;9.90;;;8.77;;
12910;SDS011;6523;49.758;6.120;2023-04-23T01:18:08;9.60;;;8.33;;
12910;SDS011;6523;49.758;6.120;2023-04-23T01:20:35;10.60;;;9.57;;
12910;SDS011;6523;49.758;6.120;2023-04-23T01:23:02;9.70;;;8.67;;
12910;SDS011;6523;49.758;6.120;2023-04-23T01:25:27;9.77;;;8.77;;
12910;SDS011;6523;49.758;6.120;2023-04-23T01:27:53;10.50;;;8.43;;
12910;SDS011;6523;49.758;6.120;2023-04-23T01:30:20;8.87;;;7.90;;
12910;SDS011;6523;49.758;6.120;2023-04-23T01:32:46;9.20;;;8.30;;
12910;SDS011;6523;49.758;6.120;2023-04-23T01:35:12;8.27;;;7.57;;
12910;SDS011;6523;49.758;6.120;2023-04-23T01:37:38;10.17;;;9.17;;
12910;SDS011;6523;49.758;6.120;2023-04-23T01:40:05;9.23;;;8.33;;
12910;SDS011;6523;49.758;6.120;2023-04-23T01:42:32;9.00;;;8.10;;
12910;SDS011;6523;49.758;6.120;2023-04-23T01:44:58;8.27;;;7.50;;
12910;SDS011;6523;49.758;6.120;2023-04-23T01:47:23;8.37;;;7.37;;
12910;SDS011;6523;49.758;6.120;2023-04-23T01:49:49;8.63;;;7.83;;
12910;SDS011;6523;49.758;6.120;2023-04-23T01:52:15;9.27;;;8.33;;
12910;SDS011;6523;49.758;6.120;2023-04-23T01:54:41;9.70;;;8.70;;
12910;SDS011;6523;49.758;6.120;2023-04-23T01:57:06;10.03;;;8.63;;
12910;SDS011;6523;49.758;6.120;2023-04-23T01:59:33;9.77;;;7.50;;
12910;SDS011;6523;49.758;6.120;2023-04-23T02:01:58;10.17;;;8.20;;
12910;SDS011;6523;49.758;6.120;2023-04-23T02:04:24;8.80;;;7.83;;
12910;SDS011;6523;49.758;6.120;2023-04-23T02:06:50;9.67;;;7.57;;
12910;SDS011;6523;49.758;6.120;2023-04-23T02:09:15;8.70;;;7.80;;
12910;SDS011;6523;49.758;6.120;2023-04-23T02:11:41;8.37;;;7.00;;
12910;SDS011;6523;49.758;6.120;2023-04-23T02:14:07;8.90;;;8.00;;
12910;SDS011;6523;49.758;6.120;2023-04-23T02:16:33;9.27;;;8.30;;
12910;SDS011;6523;49.758;6.120;2023-04-23T02:18:59;10.00;;;8.73;;
12910;SDS011;6523;49.758;6.120;2023-04-23T02:21:26;9.17;;;8.27;;
12910;SDS011;6523;49.758;6.120;2023-04-23T02:23:52;8.40;;;7.50;;
12910;SDS011;6523;49.758;6.120;2023-04-23T02:26:18;10.33;;;8.40;;
12910;SDS011;6523;49.758;6.120;2023-04-23T02:28:44;8.60;;;7.63;;
12910;SDS011;6523;49.758;6.120;2023-04-23T02:31:12;9.53;;;8.60;;
12910;SDS011;6523;49.758;6.120;2023-04-23T02:33:38;10.10;;;8.30;;
12910;SDS011;6523;49.758;6.120;2023-04-23T02:36:05;11.40;;;8.23;;
12910;SDS011;6523;49.758;6.120;2023-04-23T02:38:31;9.07;;;8.13;;
12910;SDS011;6523;49.758;6.120;2023-04-23T02:40:56;9.00;;;8.10;;
12910;SDS011;6523;49.758;6.120;2023-04-23T02:43:22;9.20;;;8.10;;
12910;SDS011;6523;49.758;6.120;2023-04-23T02:45:47;9.80;;;8.80;;
12910;SDS011;6523;49.758;6.120;2023-04-23T02:48:13;9.50;;;8.47;;
12910;SDS011;6523;49.758;6.120;2023-04-23T02:50:38;10.83;;;9.73;;
12910;SDS011;6523;49.758;6.120;2023-04-23T02:53:04;10.83;;;9.73;;
12910;SDS011;6523;49.758;6.120;2023-04-23T02:55:30;11.73;;;10.37;;
12910;SDS011;6523;49.758;6.120;2023-04-23T02:57:56;10.53;;;9.43;;
12910;SDS011;6523;49.758;6.120;2023-04-23T03:00:22;11.57;;;9.50;;
12910;SDS011;6523;49.758;6.120;2023-04-23T03:02:48;11.13;;;9.93;;
12910;SDS011;6523;49.758;6.120;2023-04-23T03:05:14;13.17;;;9.33;;
12910;SDS011;6523;49.758;6.120;2023-04-23T03:07:39;10.30;;;9.00;;
12910;SDS011;6523;49.758;6.120;2023-04-23T03:10:06;11.10;;;9.83;;
12910;SDS011;6523;49.758;6.120;2023-04-23T03:12:32;10.67;;;9.27;;
12910;SDS011;6523;49.758;6.120;2023-04-23T03:14:58;10.73;;;9.73;;
12910;SDS011;6523;49.758;6.120;2023-04-23T03:17:23;10.97;;;9.87;;
12910;SDS011;6523;49.758;6.120;2023-04-23T03:19:49;9.60;;;8.60;;
12910;SDS011;6523;49.758;6.120;2023-04-23T03:22:14;11.37;;;10.17;;
12910;SDS011;6523;49.758;6.120;2023-04-23T03:24:40;11.00;;;9.87;;
12910;SDS011;6523;49.758;6.120;2023-04-23T03:27:05;11.10;;;10.00;;
12910;SDS011;6523;49.758;6.120;2023-04-23T03:29:31;11.30;;;9.53;;
12910;SDS011;6523;49.758;6.120;2023-04-23T03:31:56;11.17;;;9.37;;
12910;SDS011;6523;49.758;6.120;2023-04-23T03:34:22;10.40;;;9.30;;
12910;SDS011;6523;49.758;6.120;2023-04-23T03:36:47;11.73;;;9.43;;
12910;SDS011;6523;49.758;6.120;2023-04-23T03:39:14;11.37;;;9.80;;
12910;SDS011;6523;49.758;6.120;2023-04-23T03:41:39;10.80;;;9.70;;
12910;SDS011;6523;49.758;6.120;2023-04-23T03:44:05;12.90;;;9.77;;
12910;SDS011;6523;49.758;6.120;2023-04-23T03:46:30;11.07;;;9.83;;
12910;SDS011;6523;49.758;6.120;2023-04-23T03:48:56;11.07;;;9.60;;
12910;SDS011;6523;49.758;6.120;2023-04-23T03:51:21;9.60;;;8.70;;
12910;SDS011;6523;49.758;6.120;2023-04-23T03:53:47;12.53;;;9.63;;
12910;SDS011;6523;49.758;6.120;2023-04-23T03:56:13;9.73;;;8.83;;
12910;SDS011;6523;49.758;6.120;2023-04-23T03:58:38;11.97;;;9.47;;
12910;SDS011;6523;49.758;6.120;2023-04-23T04:01:04;9.60;;;8.60;;
12910;SDS011;6523;49.758;6.120;2023-04-23T04:03:29;9.97;;;8.97;;
12910;SDS011;6523;49.758;6.120;2023-04-23T04:05:55;11.33;;;10.17;;
12910;SDS011;6523;49.758;6.120;2023-04-23T04:08:21;13.10;;;10.30;;
12910;SDS011;6523;49.758;6.120;2023-04-23T04:10:46;11.70;;;10.33;;
12910;SDS011;6523;49.758;6.120;2023-04-23T04:13:12;11.93;;;10.67;;
12910;SDS011;6523;49.758;6.120;2023-04-23T04:15:39;10.83;;;9.70;;
12910;SDS011;6523;49.758;6.120;2023-04-23T04:18:05;13.43;;;9.97;;
12910;SDS011;6523;49.758;6.120;2023-04-23T04:20:30;9.87;;;8.97;;
12910;SDS011;6523;49.758;6.120;2023-04-23T04:22:56;9.33;;;8.37;;
12910;SDS011;6523;49.758;6.120;2023-04-23T04:25:22;9.67;;;8.70;;
12910;SDS011;6523;49.758;6.120;2023-04-23T04:27:48;9.57;;;8.10;;
12910;SDS011;6523;49.758;6.120;2023-04-23T04:30:14;9.50;;;8.20;;
12910;SDS011;6523;49.758;6.120;2023-04-23T04:32:39;8.93;;;8.00;;
12910;SDS011;6523;49.758;6.120;2023-04-23T04:35:06;9.73;;;7.93;;
12910;SDS011;6523;49.758;6.120;2023-04-23T04:37:36;8.83;;;7.93;;
12910;SDS011;6523;49.758;6.120;2023-04-23T04:40:02;10.43;;;8.20;;
12910;SDS011;6523;49.758;6.120;2023-04-23T04:42:29;9.30;;;8.40;;
12910;SDS011;6523;49.758;6.120;2023-04-23T04:44:55;11.93;;;8.10;;
12910;SDS011;6523;49.758;6.120;2023-04-23T04:47:23;8.70;;;7.80;;
12910;SDS011;6523;49.758;6.120;2023-04-23T04:49:49;8.30;;;7.50;;
12910;SDS011;6523;49.758;6.120;2023-04-23T04:52:15;8.17;;;7.10;;
12910;SDS011;6523;49.758;6.120;2023-04-23T04:54:41;8.93;;;7.90;;
12910;SDS011;6523;49.758;6.120;2023-04-23T04:57:07;8.27;;;7.47;;
12910;SDS011;6523;49.758;6.120;2023-04-23T04:59:32;9.40;;;7.80;;
12910;SDS011;6523;49.758;6.120;2023-04-23T05:01:58;10.27;;;7.70;;
12910;SDS011;6523;49.758;6.120;2023-04-23T05:04:24;8.97;;;8.00;;
12910;SDS011;6523;49.758;6.120;2023-04-23T05:06:49;12.87;;;7.43;;
12910;SDS011;6523;49.758;6.120;2023-04-23T05:09:15;8.03;;;7.23;;
12910;SDS011;6523;49.758;6.120;2023-04-23T05:11:41;10.07;;;8.20;;
12910;SDS011;6523;49.758;6.120;2023-04-23T05:14:07;8.00;;;7.30;;
12910;SDS011;6523;49.758;6.120;2023-04-23T05:16:32;9.17;;;7.40;;
12910;SDS011;6523;49.758;6.120;2023-04-23T05:18:58;8.93;;;7.47;;
12910;SDS011;6523;49.758;6.120;2023-04-23T05:21:24;8.57;;;7.50;;
12910;SDS011;6523;49.758;6.120;2023-04-23T05:23:51;8.47;;;7.53;;
12910;SDS011;6523;49.758;6.120;2023-04-23T05:26:18;8.37;;;6.80;;
12910;SDS011;6523;49.758;6.120;2023-04-23T05:28:44;8.33;;;7.23;;
12910;SDS011;6523;49.758;6.120;2023-04-23T05:31:10;8.03;;;7.30;;
12910;SDS011;6523;49.758;6.120;2023-04-23T05:33:36;10.13;;;6.70;;
12910;SDS011;6523;49.758;6.120;2023-04-23T05:36:02;8.17;;;7.23;;
12910;SDS011;6523;49.758;6.120;2023-04-23T05:38:27;8.03;;;7.13;;
12910;SDS011;6523;49.758;6.120;2023-04-23T05:40:53;8.57;;;7.03;;
12910;SDS011;6523;49.758;6.120;2023-04-23T05:43:18;9.30;;;7.70;;
12910;SDS011;6523;49.758;6.120;2023-04-23T05:45:44;8.13;;;7.13;;
12910;SDS011;6523;49.758;6.120;2023-04-23T05:48:10;7.10;;;6.40;;
12910;SDS011;6523;49.758;6.120;2023-04-23T05:50:35;8.07;;;6.70;;
12910;SDS011;6523;49.758;6.120;2023-04-23T05:53:01;8.03;;;7.07;;
12910;SDS011;6523;49.758;6.120;2023-04-23T05:55:27;8.93;;;6.73;;
12910;SDS011;6523;49.758;6.120;2023-04-23T05:57:52;7.77;;;7.07;;
12910;SDS011;6523;49.758;6.120;2023-04-23T06:00:18;8.03;;;7.20;;
12910;SDS011;6523;49.758;6.120;2023-04-23T06:02:44;10.33;;;8.07;;
12910;SDS011;6523;49.758;6.120;2023-04-23T06:05:10;10.70;;;7.43;;
12910;SDS011;6523;49.758;6.120;2023-04-23T06:07:36;7.27;;;6.57;;
12910;SDS011;6523;49.758;6.120;2023-04-23T06:10:02;7.87;;;6.57;;
12910;SDS011;6523;49.758;6.120;2023-04-23T06:12:29;7.73;;;6.80;;
12910;SDS011;6523;49.758;6.120;2023-04-23T06:14:55;7.70;;;6.43;;
12910;SDS011;6523;49.758;6.120;2023-04-23T06:17:20;8.70;;;6.50;;
12910;SDS011;6523;49.758;6.120;2023-04-23T06:19:46;8.40;;;6.50;;
12910;SDS011;6523;49.758;6.120;2023-04-23T06:22:11;6.30;;;5.33;;
12910;SDS011;6523;49.758;6.120;2023-04-23T06:24:37;7.17;;;6.13;;
12910;SDS011;6523;49.758;6.120;2023-04-23T06:27:02;7.93;;;6.17;;
12910;SDS011;6523;49.758;6.120;2023-04-23T06:29:28;7.70;;;5.30;;
12910;SDS011;6523;49.758;6.120;2023-04-23T06:31:54;6.00;;;5.50;;
12910;SDS011;6523;49.758;6.120;2023-04-23T06:34:21;8.57;;;5.70;;
12910;SDS011;6523;49.758;6.120;2023-04-23T06:36:46;8.57;;;5.73;;
12910;SDS011;6523;49.758;6.120;2023-04-23T06:39:12;7.50;;;6.37;;
12910;SDS011;6523;49.758;6.120;2023-04-23T06:41:37;7.33;;;6.23;;
12910;SDS011;6523;49.758;6.120;2023-04-23T06:44:03;6.17;;;5.40;;
12910;SDS011;6523;49.758;6.120;2023-04-23T06:46:28;10.03;;;6.00;;
12910;SDS011;6523;49.758;6.120;2023-04-23T06:48:54;7.37;;;5.20;;
12910;SDS011;6523;49.758;6.120;2023-04-23T06:51:19;6.30;;;5.60;;
12910;SDS011;6523;49.758;6.120;2023-04-23T06:53:45;6.03;;;5.03;;
12910;SDS011;6523;49.758;6.120;2023-04-23T06:56:11;7.43;;;5.53;;
12910;SDS011;6523;49.758;6.120;2023-04-23T06:58:36;6.77;;;5.37;;
12910;SDS011;6523;49.758;6.120;2023-04-23T07:01:03;8.20;;;5.53;;
12910;SDS011;6523;49.758;6.120;2023-04-23T07:03:29;7.50;;;6.00;;
12910;SDS011;6523;49.758;6.120;2023-04-23T07:05:55;5.67;;;4.80;;
12910;SDS011;6523;49.758;6.120;2023-04-23T07:08:21;6.23;;;4.70;;
12910;SDS011;6523;49.758;6.120;2023-04-23T07:10:47;8.53;;;5.00;;
12910;SDS011;6523;49.758;6.120;2023-04-23T07:13:13;6.87;;;5.57;;
12910;SDS011;6523;49.758;6.120;2023-04-23T07:15:39;7.07;;;6.03;;
12910;SDS011;6523;49.758;6.120;2023-04-23T07:18:05;7.40;;;5.50;;
12910;SDS011;6523;49.758;6.120;2023-04-23T07:20:31;7.27;;;5.30;;
12910;SDS011;6523;49.758;6.120;2023-04-23T07:22:57;6.80;;;4.93;;
12910;SDS011;6523;49.758;6.120;2023-04-23T07:25:23;6.07;;;4.53;;
12910;SDS011;6523;49.758;6.120;2023-04-23T07:27:50;8.20;;;5.20;;
12910;SDS011;6523;49.758;6.120;2023-04-23T07:30:17;8.90;;;5.00;;
12910;SDS011;6523;49.758;6.120;2023-04-23T07:32:43;5.30;;;4.80;;
12910;SDS011;6523;49.758;6.120;2023-04-23T07:35:08;6.30;;;4.53;;
12910;SDS011;6523;49.758;6.120;2023-04-23T07:37:35;6.50;;;5.10;;
12910;SDS011;6523;49.758;6.120;2023-04-23T07:40:01;5.60;;;4.90;;
12910;SDS011;6523;49.758;6.120;2023-04-23T07:42:28;5.83;;;4.93;;
12910;SDS011;6523;49.758;6.120;2023-04-23T07:44:54;6.10;;;4.93;;
12910;SDS011;6523;49.758;6.120;2023-04-23T07:47:19;7.00;;;5.07;;
12910;SDS011;6523;49.758;6.120;2023-04-23T07:49:45;5.83;;;5.17;;
12910;SDS011;6523;49.758;6.120;2023-04-23T07:52:10;5.87;;;4.90;;
12910;SDS011;6523;49.758;6.120;2023-04-23T07:54:36;5.30;;;4.73;;
12910;SDS011;6523;49.758;6.120;2023-04-23T07:57:01;5.20;;;4.53;;
12910;SDS011;6523;49.758;6.120;2023-04-23T07:59:28;6.80;;;4.67;;
12910;SDS011;6523;49.758;6.120;2023-04-23T08:01:53;4.77;;;3.80;;
12910;SDS011;6523;49.758;6.120;2023-04-23T08:04:19;5.43;;;4.33;;
12910;SDS011;6523;49.758;6.120;2023-04-23T08:06:44;4.97;;;4.53;;
12910;SDS011;6523;49.758;6.120;2023-04-23T08:09:10;5.57;;;4.07;;
12910;SDS011;6523;49.758;6.120;2023-04-23T08:11:35;6.50;;;4.07;;
12910;SDS011;6523;49.758;6.120;2023-04-23T08:14:01;7.30;;;4.13;;
12910;SDS011;6523;49.758;6.120;2023-04-23T08:16:27;4.70;;;4.17;;
12910;SDS011;6523;49.758;6.120;2023-04-23T08:18:53;3.67;;;3.33;;
12910;SDS011;6523;49.758;6.120;2023-04-23T08:21:18;5.53;;;4.20;;
12910;SDS011;6523;49.758;6.120;2023-04-23T08:23:44;3.97;;;3.33;;
12910;SDS011;6523;49.758;6.120;2023-04-23T08:26:09;6.30;;;3.40;;
12910;SDS011;6523;49.758;6.120;2023-04-23T08:28:35;5.60;;;3.37;;
12910;SDS011;6523;49.758;6.120;2023-04-23T08:31:00;5.13;;;3.20;;
12910;SDS011;6523;49.758;6.120;2023-04-23T08:33:26;5.33;;;3.20;;
12910;SDS011;6523;49.758;6.120;2023-04-23T08:35:51;4.00;;;3.10;;
12910;SDS011;6523;49.758;6.120;2023-04-23T08:38:17;3.77;;;2.77;;
12910;SDS011;6523;49.758;6.120;2023-04-23T08:40:42;6.67;;;2.90;;
12910;SDS011;6523;49.758;6.120;2023-04-23T08:43:12;4.57;;;3.00;;
12910;SDS011;6523;49.758;6.120;2023-04-23T08:46:01;3.40;;;2.83;;
12910;SDS011;6523;49.758;6.120;2023-04-23T08:48:30;6.87;;;3.00;;
12910;SDS011;6523;49.758;6.120;2023-04-23T08:51:00;4.93;;;2.73;;
12910;SDS011;6523;49.758;6.120;2023-04-23T08:53:28;4.63;;;2.70;;
12910;SDS011;6523;49.758;6.120;2023-04-23T08:55:56;5.77;;;3.43;;
12910;SDS011;6523;49.758;6.120;2023-04-23T08:58:23;7.00;;;2.77;;
12910;SDS011;6523;49.758;6.120;2023-04-23T09:00:51;3.57;;;2.40;;
12910;SDS011;6523;49.758;6.120;2023-04-23T09:03:18;4.10;;;2.63;;
12910;SDS011;6523;49.758;6.120;2023-04-23T09:05:45;5.00;;;2.43;;
12910;SDS011;6523;49.758;6.120;2023-04-23T09:08:11;4.43;;;2.40;;
12910;SDS011;6523;49.758;6.120;2023-04-23T09:10:36;6.07;;;2.60;;
12910;SDS011;6523;49.758;6.120;2023-04-23T09:13:05;4.67;;;2.53;;
12910;SDS011;6523;49.758;6.120;2023-04-23T09:15:31;6.13;;;2.77;;
12910;SDS011;6523;49.758;6.120;2023-04-23T09:17:57;7.63;;;3.10;;
12910;SDS011;6523;49.758;6.120;2023-04-23T09:20:24;7.53;;;3.10;;
12910;SDS011;6523;49.758;6.120;2023-04-23T09:22:50;4.77;;;2.83;;
12910;SDS011;6523;49.758;6.120;2023-04-23T09:25:20;3.33;;;2.63;;
12910;SDS011;6523;49.758;6.120;2023-04-23T09:27:48;4.23;;;2.90;;
12910;SDS011;6523;49.758;6.120;2023-04-23T09:30:15;4.50;;;2.90;;
12910;SDS011;6523;49.758;6.120;2023-04-23T09:32:41;6.33;;;2.77;;
12910;SDS011;6523;49.758;6.120;2023-04-23T09:35:11;4.33;;;2.40;;
12910;SDS011;6523;49.758;6.120;2023-04-23T09:37:46;5.03;;;2.77;;
12910;SDS011;6523;49.758;6.120;2023-04-23T09:40:14;4.20;;;2.40;;
12910;SDS011;6523;49.758;6.120;2023-04-23T09:42:46;5.80;;;2.70;;
12910;SDS011;6523;49.758;6.120;2023-04-23T09:45:13;3.67;;;2.43;;
12910;SDS011;6523;49.758;6.120;2023-04-23T09:47:40;3.50;;;2.60;;
12910;SDS011;6523;49.758;6.120;2023-04-23T09:50:17;6.50;;;2.80;;
12910;SDS011;6523;49.758;6.120;2023-04-23T09:52:43;2.47;;;2.27;;
12910;SDS011;6523;49.758;6.120;2023-04-23T09:55:09;6.17;;;2.67;;
12910;SDS011;6523;49.758;6.120;2023-04-23T09:57:44;3.87;;;2.27;;
12910;SDS011;6523;49.758;6.120;2023-04-23T10:00:12;3.93;;;1.80;;
12910;SDS011;6523;49.758;6.120;2023-04-23T10:02:44;4.03;;;2.30;;
12910;SDS011;6523;49.758;6.120;2023-04-23T10:05:18;4.37;;;2.07;;
12910;SDS011;6523;49.758;6.120;2023-04-23T10:07:46;3.33;;;2.40;;
12910;SDS011;6523;49.758;6.120;2023-04-23T10:10:15;4.70;;;2.63;;
12910;SDS011;6523;49.758;6.120;2023-04-23T10:12:42;5.20;;;2.77;;
12910;SDS011;6523;49.758;6.120;2023-04-23T10:15:09;6.47;;;2.37;;
12910;SDS011;6523;49.758;6.120;2023-04-23T10:17:36;4.93;;;2.17;;
12910;SDS011;6523;49.758;6.120;2023-04-23T10:20:02;4.47;;;2.23;;
12910;SDS011;6523;49.758;6.120;2023-04-23T10:22:29;5.27;;;2.43;;
12910;SDS011;6523;49.758;6.120;2023-04-23T10:24:56;3.53;;;2.17;;
12910;SDS011;6523;49.758;6.120;2023-04-23T10:27:27;4.67;;;2.70;;
12910;SDS011;6523;49.758;6.120;2023-04-23T10:29:55;2.90;;;2.30;;
12910;SDS011;6523;49.758;6.120;2023-04-23T10:32:22;3.87;;;2.37;;
12910;SDS011;6523;49.758;6.120;2023-04-23T10:34:48;3.97;;;2.00;;
12910;SDS011;6523;49.758;6.120;2023-04-23T10:37:14;4.03;;;2.20;;
12910;SDS011;6523;49.758;6.120;2023-04-23T10:39:43;5.67;;;2.27;;
12910;SDS011;6523;49.758;6.120;2023-04-23T10:42:11;5.43;;;2.20;;
12910;SDS011;6523;49.758;6.120;2023-04-23T10:44:38;2.87;;;1.80;;
12910;SDS011;6523;49.758;6.120;2023-04-23T10:47:05;2.17;;;1.67;;
12910;SDS011;6523;49.758;6.120;2023-04-23T10:49:37;3.97;;;1.90;;
12910;SDS011;6523;49.758;6.120;2023-04-23T10:52:10;2.87;;;2.10;;
12910;SDS011;6523;49.758;6.120;2023-04-23T10:54:39;3.67;;;2.23;;
12910;SDS011;6523;49.758;6.120;2023-04-23T10:57:06;3.90;;;2.17;;
12910;SDS011;6523;49.758;6.120;2023-04-23T10:59:33;4.13;;;2.80;;
12910;SDS011;6523;49.758;6.120;2023-04-23T11:04:32;2.23;;;2.07;;
12910;SDS011;6523;49.758;6.120;2023-04-23T11:07:05;4.23;;;2.13;;
12910;SDS011;6523;49.758;6.120;2023-04-23T11:12:13;4.57;;;1.90;;
12910;SDS011;6523;49.758;6.120;2023-04-23T11:14:45;4.07;;;2.20;;
12910;SDS011;6523;49.758;6.120;2023-04-23T11:17:12;2.57;;;2.10;;
12910;SDS011;6523;49.758;6.120;2023-04-23T11:19:40;3.30;;;2.57;;
12910;SDS011;6523;49.758;6.120;2023-04-23T11:24:42;3.60;;;2.30;;
12910;SDS011;6523;49.758;6.120;2023-04-23T11:29:35;2.43;;;2.10;;
12910;SDS011;6523;49.758;6.120;2023-04-23T11:32:03;4.40;;;2.13;;
12910;SDS011;6523;49.758;6.120;2023-04-23T11:34:34;2.93;;;1.90;;
12910;SDS011;6523;49.758;6.120;2023-04-23T11:37:01;3.27;;;1.67;;
12910;SDS011;6523;49.758;6.120;2023-04-23T11:39:26;3.90;;;1.80;;
12910;SDS011;6523;49.758;6.120;2023-04-23T11:41:52;2.50;;;1.57;;
12910;SDS011;6523;49.758;6.120;2023-04-23T11:44:18;2.57;;;2.37;;
12910;SDS011;6523;49.758;6.120;2023-04-23T11:46:45;2.53;;;1.57;;
12910;SDS011;6523;49.758;6.120;2023-04-23T11:49:12;2.40;;;1.63;;
12910;SDS011;6523;49.758;6.120;2023-04-23T11:51:42;4.23;;;1.90;;
12910;SDS011;6523;49.758;6.120;2023-04-23T11:54:08;2.83;;;1.73;;
12910;SDS011;6523;49.758;6.120;2023-04-23T11:56:35;3.20;;;1.80;;
12910;SDS011;6523;49.758;6.120;2023-04-23T11:59:01;3.67;;;1.97;;
12910;SDS011;6523;49.758;6.120;2023-04-23T12:01:41;1.93;;;1.67;;
12910;SDS011;6523;49.758;6.120;2023-04-23T12:04:08;2.07;;;1.50;;
12910;SDS011;6523;49.758;6.120;2023-04-23T12:06:44;3.03;;;2.37;;
12910;SDS011;6523;49.758;6.120;2023-04-23T12:09:11;3.07;;;2.07;;
12910;SDS011;6523;49.758;6.120;2023-04-23T12:11:38;4.07;;;2.00;;
12910;SDS011;6523;49.758;6.120;2023-04-23T12:14:06;2.83;;;2.00;;
12910;SDS011;6523;49.758;6.120;2023-04-23T12:16:53;4.07;;;2.23;;
12910;SDS011;6523;49.758;6.120;2023-04-23T12:19:19;3.33;;;2.10;;
12910;SDS011;6523;49.758;6.120;2023-04-23T12:21:49;3.07;;;2.07;;
12910;SDS011;6523;49.758;6.120;2023-04-23T12:24:19;2.63;;;2.03;;
12910;SDS011;6523;49.758;6.120;2023-04-23T12:26:47;2.83;;;2.13;;
12910;SDS011;6523;49.758;6.120;2023-04-23T12:29:18;2.10;;;1.90;;
12910;SDS011;6523;49.758;6.120;2023-04-23T12:31:46;2.43;;;1.90;;
12910;SDS011;6523;49.758;6.120;2023-04-23T12:34:12;2.10;;;1.90;;
12910;SDS011;6523;49.758;6.120;2023-04-23T12:36:42;2.80;;;2.10;;
12910;SDS011;6523;49.758;6.120;2023-04-23T12:39:30;2.30;;;2.10;;
12910;SDS011;6523;49.758;6.120;2023-04-23T12:42:02;2.07;;;1.97;;
12910;SDS011;6523;49.758;6.120;2023-04-23T12:44:32;3.77;;;2.33;;
12910;SDS011;6523;49.758;6.120;2023-04-23T12:47:07;2.60;;;2.23;;
12910;SDS011;6523;49.758;6.120;2023-04-23T12:49:35;3.13;;;2.60;;
12910;SDS011;6523;49.758;6.120;2023-04-23T12:52:03;2.67;;;2.20;;
12910;SDS011;6523;49.758;6.120;2023-04-23T12:54:30;2.70;;;2.50;;
12910;SDS011;6523;49.758;6.120;2023-04-23T12:56:58;3.90;;;2.30;;
12910;SDS011;6523;49.758;6.120;2023-04-23T12:59:25;3.83;;;2.13;;
12910;SDS011;6523;49.758;6.120;2023-04-23T13:01:51;3.80;;;2.30;;
12910;SDS011;6523;49.758;6.120;2023-04-23T13:04:17;2.50;;;1.97;;
12910;SDS011;6523;49.758;6.120;2023-04-23T13:06:42;3.10;;;2.80;;
12910;SDS011;6523;49.758;6.120;2023-04-23T13:09:08;2.40;;;2.20;;
12910;SDS011;6523;49.758;6.120;2023-04-23T13:11:37;2.40;;;2.20;;
12910;SDS011;6523;49.758;6.120;2023-04-23T13:14:04;2.60;;;2.40;;
12910;SDS011;6523;49.758;6.120;2023-04-23T13:16:30;2.90;;;2.50;;
12910;SDS011;6523;49.758;6.120;2023-04-23T13:18:55;2.47;;;2.10;;
12910;SDS011;6523;49.758;6.120;2023-04-23T13:21:21;3.60;;;2.43;;
12910;SDS011;6523;49.758;6.120;2023-04-23T13:23:47;3.03;;;2.03;;
12910;SDS011;6523;49.758;6.120;2023-04-23T13:26:13;2.93;;;1.87;;
12910;SDS011;6523;49.758;6.120;2023-04-23T13:28:38;2.33;;;2.13;;
12910;SDS011;6523;49.758;6.120;2023-04-23T13:31:04;3.17;;;2.10;;
12910;SDS011;6523;49.758;6.120;2023-04-23T13:33:31;2.40;;;1.90;;
12910;SDS011;6523;49.758;6.120;2023-04-23T13:36:01;2.07;;;1.80;;
12910;SDS011;6523;49.758;6.120;2023-04-23T13:38:27;2.60;;;1.80;;
12910;SDS011;6523;49.758;6.120;2023-04-23T13:40:53;3.03;;;2.30;;
12910;SDS011;6523;49.758;6.120;2023-04-23T13:43:19;2.07;;;1.97;;
12910;SDS011;6523;49.758;6.120;2023-04-23T13:45:45;2.43;;;2.00;;
12910;SDS011;6523;49.758;6.120;2023-04-23T13:48:11;3.17;;;2.33;;
12910;SDS011;6523;49.758;6.120;2023-04-23T13:50:39;1.90;;;1.80;;
12910;SDS011;6523;49.758;6.120;2023-04-23T13:53:07;3.63;;;1.87;;
12910;SDS011;6523;49.758;6.120;2023-04-23T13:55:33;2.23;;;1.90;;
12910;SDS011;6523;49.758;6.120;2023-04-23T13:57:59;2.00;;;1.90;;
12910;SDS011;6523;49.758;6.120;2023-04-23T14:00:26;3.30;;;2.30;;
12910;SDS011;6523;49.758;6.120;2023-04-23T14:02:53;3.47;;;2.10;;
12910;SDS011;6523;49.758;6.120;2023-04-23T14:05:19;2.20;;;1.93;;
12910;SDS011;6523;49.758;6.120;2023-04-23T14:07:44;2.70;;;2.00;;
12910;SDS011;6523;49.758;6.120;2023-04-23T14:10:10;2.20;;;1.87;;
12910;SDS011;6523;49.758;6.120;2023-04-23T14:12:36;3.00;;;2.27;;
12910;SDS011;6523;49.758;6.120;2023-04-23T14:15:03;1.97;;;1.50;;
12910;SDS011;6523;49.758;6.120;2023-04-23T14:17:30;1.40;;;1.30;;
12910;SDS011;6523;49.758;6.120;2023-04-23T14:19:55;1.63;;;1.30;;
12910;SDS011;6523;49.758;6.120;2023-04-23T14:22:21;1.97;;;1.03;;
12910;SDS011;6523;49.758;6.120;2023-04-23T14:24:55;2.33;;;1.13;;
12910;SDS011;6523;49.758;6.120;2023-04-23T14:27:25;1.30;;;1.10;;
12910;SDS011;6523;49.758;6.120;2023-04-23T14:29:55;1.97;;;1.20;;
12910;SDS011;6523;49.758;6.120;2023-04-23T14:32:22;2.27;;;1.50;;
12910;SDS011;6523;49.758;6.120;2023-04-23T14:34:48;1.33;;;1.17;;
12910;SDS011;6523;49.758;6.120;2023-04-23T14:37:14;1.30;;;1.20;;
12910;SDS011;6523;49.758;6.120;2023-04-23T14:39:41;1.17;;;1.07;;
12910;SDS011;6523;49.758;6.120;2023-04-23T14:42:07;2.37;;;1.30;;
12910;SDS011;6523;49.758;6.120;2023-04-23T14:44:33;1.53;;;1.20;;
12910;SDS011;6523;49.758;6.120;2023-04-23T14:46:58;1.63;;;1.17;;
12910;SDS011;6523;49.758;6.120;2023-04-23T14:49:24;1.20;;;1.10;;
12910;SDS011;6523;49.758;6.120;2023-04-23T14:51:50;1.13;;;1.03;;
12910;SDS011;6523;49.758;6.120;2023-04-23T14:54:21;1.33;;;1.23;;
12910;SDS011;6523;49.758;6.120;2023-04-23T14:56:47;0.97;;;0.97;;
12910;SDS011;6523;49.758;6.120;2023-04-23T14:59:14;1.23;;;1.17;;
12910;SDS011;6523;49.758;6.120;2023-04-23T15:01:39;3.07;;;1.30;;
12910;SDS011;6523;49.758;6.120;2023-04-23T15:04:05;1.20;;;1.10;;